Latest Weather Observations for Port Pirie Airport AWS

IDS60801

Issued at 8:21 am CST Sunday 21 April 2024 (issued every 10 minutes, with the page automatically refreshed every 10 minutes)

About weather observations | Map of weather stations | Latest weather observations for SA | Other Formats
Station Details ID: 021139 Name: PORT PIRIE AERODROME AWS Lat: -33.24 Lon: 138.00 Height: 12.0 m
Data from the previous 72 hours. | See also: Recent months for locations in South Australia
Date/Time
CST
Temp
°C
App
Temp
°C
Dew
Point
°C
Rel
Hum
%
Delta-T
°C
Wind Press
QNH
hPa
Press
MSL
hPa
Rain since
9am
mm
Dir  Spd
km/h
Gust
km/h
Spd
kts
Gust
kts
21/08:00am 13.3 11.2 6.6 64 3.2 SE 7 7 4 4 1030.5 1030.4 0.0
21/07:30am 9.2 6.1 5.6 78 1.6 SE 11 13 6 7 1030.3 1030.2 0.0
21/07:00am 6.5 2.7 3.7 82 1.2 SE 13 13 7 7 1030.1 1030.0 0.0
21/06:30am 6.9 2.7 3.9 81 1.3 SE 15 17 8 9 1029.9 1029.8 0.0
21/06:00am 7.5 2.7 4.5 81 1.3 SE 19 20 10 11 1029.6 1029.5 0.0
21/05:30am 7.4 2.4 4.4 81 1.3 SE 20 20 11 11 1029.5 1029.4 0.0
21/05:00am 7.4 2.6 4.7 83 1.2 SE 19 20 10 11 1029.3 1029.2 0.0
21/04:30am 7.9 3.0 5.0 82 1.3 SE 20 22 11 12 1029.2 1029.1 0.0
21/04:00am 8.1 3.7 4.9 80 1.4 SE 17 20 9 11 1029.0 1028.9 0.0
21/03:30am 8.3 3.4 5.2 81 1.4 SE 20 22 11 12 1028.8 1028.7 0.0
21/03:00am 8.6 3.8 5.7 82 1.3 SE 20 22 11 12 1028.9 1028.8 0.0
21/02:30am 8.9 4.8 6.2 83 1.2 SE 17 20 9 11 1029.1 1029.0 0.0
21/02:00am 9.0 4.5 6.8 86 1.0 SE 20 22 11 12 1029.4 1029.3 0.0
21/01:30am 7.7 3.9 6.0 89 0.8 SE 15 17 8 9 1029.7 1029.6 0.0
21/01:00am 7.8 4.0 5.8 87 0.9 SE 15 17 8 9 1029.9 1029.8 0.0
21/12:30am 9.0 6.1 6.6 85 1.1 S 11 13 6 7 1030.2 1030.1 0.0
21/12:00am 10.2 7.1 7.4 83 1.3 SSE 13 15 7 8 1030.4 1030.3 0.0
 
Date/Time
CST
Temp
°C
App
Temp
°C
Dew
Point
°C
Rel
Hum
%
Delta-T
°C
Wind Press
QNH
hPa
Press
MSL
hPa
Rain since
9am
mm
Dir  Spd
km/h
Gust
km/h
Spd
kts
Gust
kts
20/11:30pm 11.2 8.7 8.1 81 1.5 SE 11 17 6 9 1030.6 1030.5 0.0
20/11:00pm 10.9 8.6 7.6 80 1.6 SSE 9 11 5 6 1030.7 1030.6 0.0
20/10:30pm 10.5 8.1 7.0 79 1.6 SSE 9 13 5 7 1030.7 1030.6 0.0
20/10:00pm 10.8 8.0 6.9 77 1.8 SSW 11 13 6 7 1030.7 1030.6 0.0
20/09:30pm 11.1 8.9 6.3 72 2.2 SSW 7 9 4 5 1030.7 1030.6 0.0
20/09:00pm 13.1 9.4 8.0 71 2.5 SSE 17 24 9 13 1030.4 1030.3 0.0
20/08:30pm 11.8 9.3 6.7 71 2.4 S 9 11 5 6 1030.3 1030.2 0.0
20/08:00pm 13.2 9.3 7.2 67 2.9 SE 17 20 9 11 1030.1 1030.0 0.0
20/07:30pm 14.3 10.6 7.8 65 3.2 SE 17 19 9 10 1029.9 1029.8 0.0
20/07:00pm 15.3 13.1 10.7 74 2.4 SSE 13 15 7 8 1029.7 1029.6 0.0
20/06:30pm 16.6 13.3 11.5 72 2.7 SSW 20 30 11 16 1029.3 1029.2 0.0
20/06:00pm 17.1 12.1 10.9 67 3.3 SSW 28 35 15 19 1028.7 1028.6 0.0
20/05:30pm 18.0 11.9 10.4 61 4.0 SSW 33 41 18 22 1028.3 1028.2 0.0
20/05:00pm 18.9 12.9 10.2 57 4.7 SW 32 41 17 22 1028.1 1028.0 0.0
20/04:30pm 19.7 13.4 9.0 50 5.6 SW 32 41 17 22 1027.9 1027.8 0.0
20/04:00pm 20.7 13.8 9.0 47 6.2 SW 35 43 19 23 1027.6 1027.5 0.0
20/03:30pm 21.4 14.6 6.9 39 7.4 SW 32 39 17 21 1027.7 1027.6 0.0
20/03:00pm 22.0 18.2 7.4 39 7.5 SSW 17 32 9 17 1027.6 1027.5 0.0
20/02:30pm 23.5 18.5 4.5 29 9.3 SSE 20 32 11 17 1027.6 1027.5 0.0
20/02:00pm 23.5 18.7 4.5 29 9.4 SE 19 26 10 14 1027.6 1027.5 0.0
20/01:30pm 22.3 17.3 4.4 31 8.7 SE 20 28 11 15 1028.0 1027.9 0.0
20/01:00pm 22.2 17.4 5.6 34 8.3 SE 20 30 11 16 1028.5 1028.4 0.0
20/12:30pm 21.7 17.6 6.4 37 7.7 SE 17 30 9 16 1029.0 1028.9 0.0
20/12:00pm 21.2 16.8 6.7 39 7.3 SE 19 26 10 14 1029.7 1029.6 0.0
20/11:30am 20.3 16.4 7.0 42 6.7 SE 17 28 9 15 1030.2 1030.1 0.0
20/11:00am 19.2 14.4 7.3 46 6.0 ESE 22 32 12 17 1030.4 1030.3 0.0
20/10:30am 18.3 13.5 7.4 49 5.5 SE 22 30 12 16 1030.6 1030.5 0.0
20/10:00am 17.0 11.8 7.4 53 4.8 SE 24 32 13 17 1030.8 1030.7 0.0
20/09:30am 16.1 11.5 8.1 59 4.0 SE 22 30 12 16 1030.9 1030.8 0.0
20/09:00am 13.9 9.2 7.7 66 3.0 SE 22 28 12 15 1030.9 1030.8 0.0
20/08:30am 12.6 7.9 7.7 72 2.4 SE 22 26 12 14 1030.8 1030.7 0.0
20/08:00am 10.5 6.1 7.2 80 1.6 SE 20 26 11 14 1030.6 1030.5 0.0
20/07:30am 8.6 4.6 6.7 88 0.9 SE 17 22 9 12 1030.3 1030.2 0.0
20/07:00am 6.4 2.4 5.0 91 0.6 SSE 15 17 8 9 1030.2 1030.1 0.0
20/06:30am 6.1 2.8 4.6 90 0.6 SE 11 13 6 7 1030.0 1029.9 0.0
20/06:00am 6.5 2.9 5.0 90 0.6 SSE 13 15 7 8 1029.6 1029.5 0.0
20/05:30am 6.3 3.4 4.6 89 0.7 S 9 9 5 5 1029.0 1028.9 0.0
20/05:00am 7.4 3.2 5.5 88 0.8 SE 17 19 9 10 1028.5 1028.4 0.0
20/04:30am 7.2 3.3 5.3 88 0.8 SE 15 19 8 10 1028.5 1028.4 0.0
20/04:00am 7.4 3.5 5.4 87 0.9 SE 15 17 8 9 1028.6 1028.5 0.0
20/03:30am 7.2 3.2 4.9 85 1.0 SE 15 15 8 8 1028.7 1028.6 0.0
20/03:00am 7.6 3.3 5.2 85 1.1 SE 17 19 9 10 1028.8 1028.7 0.0
20/02:30am 6.9 2.8 4.2 83 1.2 SE 15 17 8 9 1028.7 1028.6 0.0
20/02:00am 7.7 4.1 4.8 82 1.3 SSE 13 17 7 9 1028.8 1028.7 0.0
20/01:30am 8.4 4.4 5.0 79 1.5 SE 15 17 8 9 1028.6 1028.5 0.0
20/01:00am 9.2 6.4 5.2 76 1.8 ESE 9 13 5 7 1028.7 1028.6 0.0
20/12:30am 9.8 5.6 5.6 75 1.9 SE 17 20 9 11 1028.8 1028.7 0.0
20/12:00am 9.9 5.1 5.7 75 1.9 SSE 20 22 11 12 1028.7 1028.6 0.0
 
Date/Time
CST
Temp
°C
App
Temp
°C
Dew
Point
°C
Rel
Hum
%
Delta-T
°C
Wind Press
QNH
hPa
Press
MSL
hPa
Rain since
9am
mm
Dir  Spd
km/h
Gust
km/h
Spd
kts
Gust
kts
19/11:30pm 9.6 5.3 5.2 74 2.0 SSE 17 20 9 11 1028.7 1028.6 0.0
19/11:00pm 9.2 5.5 4.6 73 2.0 SSE 13 15 7 8 1028.7 1028.6 0.0
19/10:30pm 10.7 6.5 5.7 71 2.3 SSE 17 19 9 10 1028.8 1028.7 0.0
19/10:00pm 11.7 7.1 5.8 67 2.7 SSE 19 20 10 11 1028.6 1028.5 0.0
19/09:30pm 12.6 8.1 6.2 65 3.0 SSE 19 22 10 12 1028.5 1028.4 0.0
19/09:00pm 13.6 8.3 6.7 63 3.3 S 24 32 13 17 1028.1 1028.0 0.0
19/08:30pm 14.2 8.6 7.0 62 3.5 S 26 32 14 17 1027.7 1027.6 0.0
19/08:00pm 14.9 9.0 7.5 61 3.7 S 28 33 15 18 1027.4 1027.3 0.0
19/07:30pm 15.4 9.9 7.7 60 3.8 S 26 32 14 17 1027.2 1027.1 0.0
19/07:00pm 16.0 10.6 8.0 59 4.0 S 26 33 14 18 1026.7 1026.6 0.0
19/06:30pm 16.7 10.1 7.9 56 4.4 S 32 39 17 21 1026.4 1026.3 0.0
19/06:00pm 17.5 11.2 7.5 52 5.0 S 30 39 16 21 1026.0 1025.9 0.0
19/05:30pm 18.5 11.8 7.3 48 5.6 S 32 41 17 22 1025.5 1025.4 0.0
19/05:00pm 19.1 11.8 7.2 46 6.0 S 35 44 19 24 1025.1 1025.0 0.0
19/04:30pm 20.9 14.4 6.4 39 7.3 S 30 37 16 20 1024.8 1024.7 0.0
19/04:00pm 21.2 15.0 6.3 38 7.5 SSE 28 41 15 22 1024.6 1024.5 0.0
19/03:30pm 20.6 13.6 5.8 38 7.3 S 32 44 17 24 1024.3 1024.2 0.0
19/03:11pm 21.7 15.5 6.0 36 7.9 S 28 46 15 25 1024.1 1024.0 0.0
19/03:00pm 21.1 14.1 5.9 37 7.6 SSE 32 43 17 23 1024.2 1024.1 0.0
19/02:30pm 21.7 14.9 6.8 38 7.6 S 32 43 17 23 1024.0 1023.9 0.0
19/02:00pm 21.8 15.3 6.5 37 7.8 S 30 43 16 23 1023.9 1023.8 0.0
19/01:30pm 20.7 15.2 5.9 38 7.3 S 24 37 13 20 1023.8 1023.7 0.0
19/01:00pm 22.0 16.2 6.3 36 8.0 S 26 43 14 23 1024.2 1024.1 0.0
19/12:30pm 20.8 14.7 6.4 39 7.2 S 28 39 15 21 1024.6 1024.5 0.0
19/12:00pm 20.3 14.5 6.3 40 7.0 S 26 35 14 19 1024.8 1024.7 0.0
19/11:30am 20.4 14.7 6.7 41 6.9 SSE 26 37 14 20 1025.1 1025.0 0.0
19/11:00am 19.1 13.4 6.6 44 6.3 SSE 26 39 14 21 1025.1 1025.0 0.0
19/10:30am 19.4 12.7 7.5 46 6.0 SSE 32 43 17 23 1025.3 1025.2 0.0
19/10:00am 17.6 11.5 8.2 54 4.8 SSE 30 37 16 20 1025.5 1025.4 0.0
19/09:30am 16.9 11.4 9.3 61 3.9 SE 28 37 15 20 1025.7 1025.6 0.0
19/09:00am 16.2 10.7 10.7 70 2.9 SE 30 39 16 21 1025.6 1025.5 0.0
19/08:30am 15.9 12.7 13.0 83 1.6 SSE 22 30 12 16 1025.3 1025.2 0.0
19/08:00am 15.7 12.2 13.5 87 1.2 SSE 24 32 13 17 1024.9 1024.8 0.0
19/07:47am 15.7 13.6 13.5 87 1.2 SSE 17 32 9 17 1024.7 1024.6 0.0
19/07:30am 15.1 14.7 13.0 87 1.2 SE 7 9 4 5 1024.4 1024.3 0.0
19/07:00am 14.8 13.8 12.3 85 1.4 SE 9 11 5 6 1024.0 1023.9 0.0
19/06:30am 14.4 13.6 11.7 84 1.4 SE 7 9 4 5 1023.7 1023.6 0.0
19/06:00am 14.4 14.7 10.8 79 1.9 CALM 0 0 0 0 1023.6 1023.5 0.0
19/05:30am 14.5 14.6 10.1 75 2.3 CALM 0 0 0 0 1023.6 1023.5 0.0
19/05:00am 14.5 13.4 10.1 75 2.3 ESE 6 7 3 4 1023.4 1023.3 0.0
19/04:30am 14.4 14.2 10.4 77 2.1 SE 2 7 1 4 1023.3 1023.2 0.0
19/04:00am 13.5 13.2 8.6 72 2.5 CALM 0 0 0 0 1023.3 1023.2 0.0
19/03:30am 14.1 13.6 9.5 74 2.3 SE 2 6 1 3 1023.1 1023.0 0.0
19/03:00am 13.7 13.4 8.7 72 2.5 CALM 0 0 0 0 1023.5 1023.4 0.0
19/02:30am 13.5 13.1 8.4 71 2.5 CALM 0 0 0 0 1023.5 1023.4 0.0
19/02:00am 13.7 13.4 8.5 71 2.6 CALM 0 0 0 0 1023.9 1023.8 0.0
19/01:30am 13.4 13.1 8.5 72 2.4 CALM 0 0 0 0 1024.1 1024.0 0.0
19/01:00am 13.4 11.7 8.5 72 2.4 ESE 7 9 4 5 1024.1 1024.0 0.0
19/12:30am 13.0 10.9 8.1 72 2.4 ESE 9 11 5 6 1024.4 1024.3 0.0
19/12:00am 12.8 10.6 7.9 72 2.4 E 9 11 5 6 1024.8 1024.7 0.0
 
Date/Time
CST
Temp
°C
App
Temp
°C
Dew
Point
°C
Rel
Hum
%
Delta-T
°C
Wind Press
QNH
hPa
Press
MSL
hPa
Rain since
9am
mm
Dir  Spd
km/h
Gust
km/h
Spd
kts
Gust
kts
18/11:30pm 12.3 9.9 6.8 69 2.6 ESE 9 11 5 6 1025.1 1025.0 0.0
18/11:00pm 13.2 11.0 7.9 70 2.6 ESE 9 9 5 5 1025.5 1025.4 0.0
18/10:30pm 13.3 11.2 8.2 71 2.5 ESE 9 11 5 6 1025.8 1025.7 0.0
18/10:00pm 13.9 12.4 8.3 69 2.8 SSE 6 6 3 3 1026.0 1025.9 0.0
18/09:30pm 14.6 12.2 8.5 67 3.1 S 11 15 6 8 1026.1 1026.0 0.0
18/09:00pm 16.2 12.2 8.9 62 3.7 S 20 26 11 14 1025.8 1025.7 0.0
18/08:30pm 16.1 12.2 8.6 61 3.8 S 19 26 10 14 1025.8 1025.7 0.0
18/08:00pm 16.5 12.4 8.7 60 4.0 S 20 24 11 13 1025.8 1025.7 0.0
18/07:30pm 16.7 11.5 8.9 60 4.0 S 26 32 14 17 1025.7 1025.6 0.0
18/07:00pm 15.9 12.0 8.6 62 3.7 SSW 19 24 10 13 1025.5 1025.4 0.0
18/06:30pm 16.3 11.4 8.3 59 4.0 SSW 24 30 13 16 1025.4 1025.3 0.0
18/06:00pm 16.7 10.8 7.6 55 4.5 SSW 28 35 15 19 1025.4 1025.3 0.0
18/05:30pm 17.2 10.4 7.0 51 5.0 SW 32 41 17 22 1025.4 1025.3 0.0
18/05:00pm 17.9 9.7 6.4 47 5.7 SW 39 48 21 26 1025.1 1025.0 0.0
18/04:30pm 18.3 9.5 7.1 48 5.6 SSW 43 54 23 29 1025.2 1025.1 0.0
18/04:00pm 18.6 9.7 7.7 49 5.6 SW 44 52 24 28 1025.2 1025.1 0.0
18/03:30pm 19.1 10.4 7.5 47 5.9 SW 43 52 23 28 1025.1 1025.0 0.0
18/03:00pm 19.2 11.9 7.0 45 6.1 SW 35 44 19 24 1025.5 1025.4 0.0
18/02:30pm 19.4 12.7 7.5 46 6.0 SW 32 41 17 22 1025.5 1025.4 0.0
18/02:00pm 18.9 13.0 7.4 47 5.8 SW 28 41 15 22 1025.6 1025.5 0.0
18/01:30pm 19.3 13.4 7.7 47 5.9 SW 28 35 15 19 1026.0 1025.9 0.0
18/01:00pm 19.3 14.5 7.4 46 6.1 S 22 33 12 18 1026.3 1026.2 0.0
18/12:30pm 18.8 14.6 7.3 47 5.8 SSW 19 30 10 16 1026.7 1026.6 0.0
18/12:00pm 19.5 15.1 7.3 45 6.2 S 20 30 11 16 1027.2 1027.1 0.0
18/11:30am 18.6 14.4 7.4 48 5.6 S 19 30 10 16 1027.5 1027.4 0.0
18/11:00am 18.4 14.5 7.2 48 5.6 S 17 26 9 14 1027.8 1027.7 0.0
18/10:30am 17.7 13.3 7.2 50 5.2 SSE 20 30 11 16 1027.9 1027.8 0.0
18/10:00am 17.6 12.9 7.6 52 5.0 SE 22 28 12 15 1027.9 1027.8 0.0
18/09:30am 16.5 11.5 8.0 57 4.3 SE 24 30 13 16 1028.3 1028.2 0.0
18/09:00am 15.6 11.6 8.4 62 3.6 SE 19 24 10 13 1028.4 1028.3 0.0
18/08:30am 13.8 10.5 8.0 68 2.9 SE 15 19 8 10 1028.4 1028.3 0.0

Other formats

Comma delimited format used in spreadsheet applications
http://www.bom.gov.au/fwo/IDS60801/IDS60801.99749.axf

JavaScript Object Notation format (JSON) in row-major order
http://www.bom.gov.au/fwo/IDS60801/IDS60801.99749.json

Data quality

Most of these data are generated automatically and are frequently updated. Quality checks on data are not normally performed. It is possible for incorrect values to appear. Refer to information at About Latest Weather Observations and please check the disclaimer before using these data.